Latest Weather Observations for Leinster

IDW60801

Issued at 5:35 pm WST Friday 31 October 2014 (issued every 30 minutes, with the page automatically refreshed every 10 minutes)

About weather observations | Map of weather stations | Latest weather observations for WA | Other Formats
Station Details ID: 012314 Name: LEINSTER AERO Lat: -27.84 Lon: 120.70 Height: 497.0 m
Data from the previous 72 hours. | See also: Recent months at Leinster
Date/Time
WST
Temp
°C
App
Temp
°C
Dew
Point
Rel
Hum
%
Delta-T
°C
Wind Press
QNH
hPa
Press
MSL
hPa
Rain
since 9 am
mm
Dir
 
Spd
km/h
Gust
km/h
Spd
kts
Gust
kts
31/05:30pm 27.2 21.1 -2.6 14 13.6 SSW 20 30 11 16 1013.0 1010.7 0.0
31/05:00pm 27.7 21.7 -1.3 15 13.6 S 20 32 11 17 1012.6 1010.3 0.0
31/04:30pm 28.3 22.0 -3.8 12 14.5 SSW 20 32 11 17 1012.4 1010.0 0.0
31/04:00pm 28.7 22.5 -0.5 15 14.0 SSW 22 32 12 17 1012.2 1009.8 0.0
31/03:30pm 27.7 21.7 -1.3 15 13.6 S 20 32 11 17 1012.1 1009.7 0.0
31/03:00pm 27.7 22.4 -0.4 16 13.4 SSW 17 26 9 14 1012.2 1009.8 0.0
31/02:30pm 27.5 21.8 0.3 17 13.1 S 20 32 11 17 1012.3 1009.9 0.0
31/02:00pm 26.4 20.9 1.7 20 12.1 S 20 28 11 15 1012.6 1010.3 0.0
31/01:30pm 26.2 21.2 3.4 23 11.5 S 19 30 10 16 1012.8 1010.5 0.0
31/01:00pm 26.4 21.7 3.0 22 11.8 SW 17 26 9 14 1012.9 1010.6 0.0
31/12:30pm 26.3 21.6 2.9 22 11.7 S 17 32 9 17 1013.1 1010.8 0.0
31/12:00pm 25.3 21.2 4.4 26 10.7 SSW 15 28 8 15 1013.2 1010.9 0.0
31/11:30am 25.2 21.2 4.9 27 10.5 SSW 15 28 8 15 1013.6 1011.3 0.0
31/11:00am 24.4 19.6 5.7 30 9.8 SSW 20 32 11 17 1014.0 1011.6 0.0
31/10:30am 24.1 19.9 5.9 31 9.5 SSW 17 26 9 14 1014.0 1011.6 0.0
31/10:00am 23.1 19.4 6.4 34 8.8 SW 15 22 8 12 1014.1 1011.7 0.0
31/09:30am 21.8 17.2 5.7 35 8.3 S 19 26 10 14 1014.1 1011.7 0.0
31/09:00am 21.3 15.9 6.4 38 7.7 SW 24 26 13 14 1014.2 1011.8 0.0
31/08:30am 21.1 16.0 7.7 42 7.1 S 24 35 13 19 1014.2 1011.8 0.0
31/08:00am 20.7 15.9 7.3 42 7.0 S 22 33 12 18 1013.8 1011.5 0.0
31/07:30am 20.2 15.2 7.9 45 6.5 SSW 24 32 13 17 1013.5 1011.2 0.0
31/07:00am 19.7 14.3 7.8 46 6.3 SSW 26 33 14 18 1013.3 1011.0 0.0
31/06:30am 19.3 13.5 8.0 48 6.0 SSW 28 39 15 21 1012.9 1010.6 0.0
31/06:00am 19.5 14.6 8.5 49 5.9 SSW 24 33 13 18 1012.5 1010.1 0.0
31/05:30am 19.2 15.9 8.2 49 5.8 SSW 15 20 8 11 1012.1 1009.7 0.0
31/05:00am 19.6 15.9 8.0 47 6.1 SW 17 24 9 13 1011.4 1009.1 0.0
31/04:30am 19.9 17.1 7.0 43 6.7 SW 11 17 6 9 1011.1 1008.8 0.0
31/04:00am 20.7 17.5 7.0 41 7.2 SW 13 19 7 10 1010.8 1008.5 0.0
31/03:30am 21.3 17.6 6.4 38 7.7 SW 15 20 8 11 1010.6 1008.2 0.0
31/03:00am 21.8 18.4 6.1 36 8.1 SW 13 20 7 11 1010.4 1008.0 0.0
31/02:30am 22.5 19.1 5.9 34 8.6 SW 13 20 7 11 1010.2 1007.8 0.0
31/02:00am 22.8 19.4 5.7 33 8.8 SW 13 17 7 9 1010.1 1007.7 0.0
31/01:30am 23.7 19.5 5.6 31 9.4 SW 17 20 9 11 1010.1 1007.7 0.0
31/01:00am 24.2 20.3 5.5 30 9.7 SW 15 20 8 11 1010.0 1007.6 0.0
31/12:30am 24.9 20.2 5.2 28 10.2 SW 19 24 10 13 1010.1 1007.7 0.0
31/12:00am 25.5 20.1 4.6 26 10.8 SW 22 32 12 17 1010.2 1007.8 0.0
 
Date/Time
WST
Temp
°C
App
Temp
°C
Dew
Point
Rel
Hum
%
Delta-T
°C
Wind Press
QNH
hPa
Press
MSL
hPa
Rain
since 9 am
mm
Dir
 
Spd
km/h
Gust
km/h
Spd
kts
Gust
kts
30/11:30pm 26.0 20.9 3.9 24 11.3 SW 20 30 11 16 1010.5 1008.1 0.0
30/11:00pm 26.3 21.7 3.5 23 11.6 WSW 17 22 9 12 1010.5 1008.1 0.0
30/10:30pm 25.6 22.2 4.1 25 11.0 W 11 15 6 8 1010.6 1008.2 0.0
30/10:00pm 26.4 22.5 3.6 23 11.6 WSW 13 19 7 10 1010.7 1008.4 0.0
30/09:30pm 27.0 23.1 3.5 22 12.0 WSW 13 19 7 10 1010.7 1008.4 0.0
30/09:00pm 27.8 24.2 2.8 20 12.7 WSW 11 17 6 9 1010.6 1008.2 0.0
30/08:30pm 28.6 24.5 2.0 18 13.3 WSW 13 17 7 9 1010.4 1008.0 0.0
30/08:00pm 29.3 24.7 1.7 17 13.9 W 15 19 8 10 1010.2 1007.8 0.0
30/07:30pm 30.3 25.2 0.8 15 14.7 WSW 17 26 9 14 1009.9 1007.5 0.0
30/07:00pm 31.0 26.0 1.4 15 14.9 WSW 17 22 9 12 1009.5 1007.2 0.0
30/06:30pm 31.9 25.9 1.1 14 15.5 WSW 22 30 12 16 1009.1 1006.8 0.0
30/06:00pm 32.8 26.6 -0.3 12 16.4 WSW 22 30 12 16 1008.6 1006.2 0.0
30/05:30pm 33.8 27.3 0.5 12 16.8 WSW 24 37 13 20 1008.3 1005.9 0.0
30/05:00pm 34.4 27.8 -0.3 11 17.4 W 24 44 13 24 1008.2 1005.8 0.0
30/04:30pm 34.8 27.7 -1.3 10 17.8 WSW 26 39 14 21 1008.0 1005.6 0.0
30/04:00pm 35.3 28.8 0.4 11 17.8 W 24 32 13 17 1008.1 1005.7 0.0
30/03:30pm 35.6 29.9 0.6 11 17.9 W 20 33 11 18 1008.2 1005.8 0.0
30/03:00pm 34.8 28.4 1.2 12 17.3 W 24 35 13 19 1008.4 1006.0 0.0
30/02:30pm 35.4 30.1 2.8 13 17.3 W 20 37 11 20 1008.6 1006.2 0.0
30/02:00pm 35.1 29.9 3.6 14 16.9 W 20 35 11 19 1008.8 1006.4 0.0
30/01:30pm 34.2 28.5 2.9 14 16.5 W 22 32 12 17 1009.3 1007.0 0.0
30/01:00pm 34.2 28.1 2.9 14 16.5 WNW 24 33 13 18 1009.9 1007.5 0.0
30/12:30pm 33.8 28.4 4.5 16 15.8 NW 22 32 12 17 1010.2 1007.8 0.0
30/12:00pm 34.0 29.8 5.5 17 15.6 NW 17 28 9 15 1010.6 1008.2 0.0
30/11:30am 33.1 28.0 3.9 16 15.5 NW 20 35 11 19 1010.9 1008.6 0.0
30/11:00am 32.0 29.2 10.1 26 12.8 WNW 15 28 8 15 1011.2 1008.9 0.0
30/10:30am 30.6 28.0 12.0 32 11.1 WNW 17 28 9 15 1011.7 1009.4 0.0
30/10:00am 29.4 27.2 13.2 37 9.8 NW 17 26 9 14 1012.3 1009.9 0.0
30/09:30am 28.3 25.6 13.4 40 9.0 NW 20 30 11 16 1012.7 1010.4 0.0
30/09:00am 27.4 24.8 13.7 43 8.3 NW 20 32 11 17 1012.7 1010.4 2.6
30/08:30am 26.3 24.4 14.1 47 7.4 NNW 17 22 9 12 1012.9 1010.6 2.6
30/08:00am 24.6 21.9 13.5 50 6.6 N 20 28 11 15 1013.0 1010.7 2.6
30/07:30am 23.5 20.6 13.9 55 5.7 N 22 28 12 15 1013.1 1010.8 2.6
30/07:00am 22.4 20.8 14.0 59 5.0 N 15 22 8 12 1013.1 1010.8 2.6
30/06:30am 21.0 20.6 14.2 65 4.0 N 9 13 5 7 1013.3 1011.0 2.6
30/06:00am 19.0 19.4 15.3 79 2.2 N 7 9 4 5 1013.2 1010.9 2.6
30/05:30am 17.6 17.8 15.8 89 1.1 N 9 11 5 6 1013.1 1010.8 2.6
30/05:00am 17.3 18.3 16.8 97 0.3 NNW 7 9 4 5 1013.0 1010.7 2.6
30/04:30am 17.4 18.3 16.1 92 0.8 WNW 6 7 3 4 1013.0 1010.7 2.6
30/04:00am 18.1 19.1 15.4 84 1.6 WNW 4 7 2 4 1012.8 1010.5 2.6
30/03:30am 19.0 18.8 14.7 76 2.6 W 9 13 5 7 1012.6 1010.3 2.6
30/03:00am 20.0 18.8 13.9 68 3.6 N 13 20 7 11 1012.2 1009.8 2.6
30/02:30am 19.9 18.9 14.7 72 3.1 N 13 20 7 11 1012.2 1009.8 2.6
30/02:00am 19.0 19.9 16.2 84 1.7 ENE 6 9 3 5 1012.7 1010.4 2.6
30/01:30am 18.9 19.8 16.1 84 1.7 NNE 6 11 3 6 1012.9 1010.6 2.6
30/01:00am 19.0 20.0 16.4 85 1.6 SE 6 7 3 4 1013.1 1010.8 2.6
30/12:30am 19.1 20.1 15.4 79 2.2 ENE 4 7 2 4 1013.6 1011.3 2.6
30/12:00am 19.7 20.2 15.6 77 2.5 E 7 11 4 6 1013.7 1011.4 2.6
 
Date/Time
WST
Temp
°C
App
Temp
°C
Dew
Point
Rel
Hum
%
Delta-T
°C
Wind Press
QNH
hPa
Press
MSL
hPa
Rain
since 9 am
mm
Dir
 
Spd
km/h
Gust
km/h
Spd
kts
Gust
kts
29/11:30pm 20.0 19.9 15.0 73 3.0 ENE 9 15 5 8 1013.6 1011.3 2.6
29/11:00pm 20.6 18.9 14.7 69 3.5 ENE 17 22 9 12 1013.5 1011.2 2.6
29/10:30pm 21.1 18.9 14.3 65 4.1 E 19 24 10 13 1013.8 1011.5 2.6
29/10:00pm 21.9 18.9 13.8 60 4.8 E 22 32 12 17 1014.5 1012.2 2.6
29/09:56pm 22.1 18.0 13.7 59 5.0 ENE 28 46 15 25 1014.5 1012.2 2.6
29/09:30pm 22.6 19.2 13.7 57 5.3 E 24 37 13 20 1014.9 1012.6 2.6
29/09:00pm 23.0 20.4 13.8 56 5.5 ENE 20 32 11 17 1015.5 1013.2 2.6
29/08:30pm 23.7 19.9 13.6 53 6.0 ENE 26 35 14 19 1014.7 1012.4 2.6
29/08:00pm 23.9 21.4 14.0 54 5.9 ENE 20 30 11 16 1014.0 1011.6 2.6
29/07:30pm 24.0 21.7 14.7 56 5.6 ENE 20 26 11 14 1014.3 1011.9 2.6
29/07:00pm 23.7 23.4 15.5 60 5.0 E 11 15 6 8 1013.4 1011.1 2.6
29/06:30pm 24.1 23.2 14.8 56 5.7 ESE 13 20 7 11 1012.8 1010.5 2.6
29/06:00pm 24.0 22.3 16.3 62 4.8 E 20 30 11 16 1012.0 1009.6 2.6
29/05:30pm 25.5 25.0 15.8 55 6.0 ESE 13 20 7 11 1012.1 1009.7 2.6
29/05:00pm 24.6 25.4 18.1 67 4.2 SE 11 17 6 9 1012.4 1010.0 2.6
29/04:30pm 23.3 24.6 20.8 86 1.7 S 15 20 8 11 1012.5 1010.1 2.6
29/04:00pm 22.7 23.9 20.0 85 1.8 NNE 13 20 7 11 1013.2 1010.9 2.6
29/03:54pm 22.5 23.6 20.4 88 1.4 N 15 20 8 11 1013.6 1011.3 2.6
29/03:38pm 23.2 19.6 16.3 65 4.3 WNW 30 48 16 26 1013.5 1011.2 1.4
29/03:34pm 27.5 27.6 15.5 48 7.5 SSE 9 20 5 11 1012.8 1010.5 0.6
29/03:30pm 29.4 27.8 12.8 36 10.0 SE 13 22 7 12 1012.0 1009.6 0.2
29/03:24pm 30.8 26.7 8.5 25 12.6 ESE 20 37 11 20 1011.0 1008.7 0.0
29/03:00pm 31.7 27.7 10.4 27 12.5 ESE 22 35 12 19 1008.9 1006.6 0.0
29/02:30pm 34.3 29.5 5.8 17 15.7 ESE 20 32 11 17 1009.1 1006.8 0.0
29/02:00pm 34.8 31.1 7.8 19 15.4 ESE 17 22 9 12 1009.5 1007.2 0.0
29/01:30pm 34.4 32.3 8.2 20 15.0 S 9 13 5 7 1010.6 1008.2 0.0
29/01:00pm 34.5 31.5 7.5 19 15.3 S 13 19 7 10 1011.1 1008.8 0.0
29/12:30pm 34.4 30.6 7.5 19 15.2 SSW 17 20 9 11 1011.9 1009.5 0.0
29/12:00pm 34.2 32.6 8.8 21 14.7 WSW 7 13 4 7 1012.1 1009.7 0.0
29/11:30am 33.9 31.5 8.5 21 14.6 WNW 11 17 6 9 1012.3 1009.9 0.0
29/11:00am 33.7 30.8 8.3 21 14.5 NNW 13 26 7 14 1012.6 1010.3 0.0
29/10:30am 34.3 32.2 8.1 20 15.0 N 9 17 5 9 1012.7 1010.4 0.0
29/10:00am 31.8 28.6 6.8 21 13.8 N 13 19 7 10 1013.1 1010.8 0.0
29/09:30am 31.9 28.0 5.4 19 14.3 NE 15 24 8 13 1013.3 1011.0 0.0
29/09:00am 31.4 26.7 3.4 17 14.6 NE 17 24 9 13 1013.6 1011.3 0.0
29/08:30am 30.4 25.7 3.4 18 14.0 NE 17 24 9 13 1013.6 1011.3 0.0
29/08:00am 28.9 23.6 3.0 19 13.2 ENE 20 30 11 16 1013.5 1011.2 0.0
29/07:30am 28.5 23.4 4.1 21 12.7 ENE 20 28 11 15 1013.5 1011.2 0.0
29/07:00am 27.0 22.2 4.7 24 11.6 ENE 19 24 10 13 1013.8 1011.5 0.0
29/06:30am 26.1 21.3 4.6 25 11.1 ENE 19 26 10 14 1013.6 1011.3 0.0
29/06:00am 24.1 20.1 5.0 29 9.8 NE 15 17 8 9 1013.6 1011.3 0.0
29/05:30am 22.8 19.3 5.3 32 9.0 NE 13 15 7 8 1013.4 1011.1 0.0
29/05:00am 23.2 20.0 5.1 31 9.3 E 11 13 6 7 1013.2 1010.9 0.0
29/04:30am 24.3 21.1 5.1 29 9.9 E 11 13 6 7 1013.0 1010.7 0.0
29/04:00am 25.3 21.6 4.4 26 10.7 E 13 17 7 9 1013.0 1010.7 0.0
29/03:30am 25.9 22.7 4.9 26 10.9 E 11 17 6 9 1013.1 1010.8 0.0
29/03:00am 26.1 22.5 5.1 26 11.0 ESE 13 17 7 9 1013.1 1010.8 0.0
29/02:30am 26.9 23.2 4.6 24 11.6 ESE 13 17 7 9 1013.2 1010.9 0.0
29/02:00am 27.4 23.3 4.5 23 11.9 ESE 15 20 8 11 1013.4 1011.1 0.0
29/01:30am 27.4 23.7 4.5 23 11.9 SSW 13 17 7 9 1014.1 1011.7 0.0
29/01:00am 27.2 23.5 4.3 23 11.9 E 13 17 7 9 1012.5 1010.1 0.0
29/12:30am 27.1 24.2 4.8 24 11.6 E 9 13 5 7 1012.9 1010.6 0.0
29/12:00am 27.1 24.2 4.8 24 11.6 ESE 9 13 5 7 1012.6 1010.3 0.0
 
Date/Time
WST
Temp
°C
App
Temp
°C
Dew
Point
Rel
Hum
%
Delta-T
°C
Wind Press
QNH
hPa
Press
MSL
hPa
Rain
since 9 am
mm
Dir
 
Spd
km/h
Gust
km/h
Spd
kts
Gust
kts
28/11:30pm 27.8 24.9 4.8 23 12.0 E 9 15 5 8 1012.9 1010.6 0.0
28/11:00pm 28.2 24.9 4.5 22 12.4 ESE 11 15 6 8 1012.9 1010.6 0.0
28/10:30pm 28.7 25.3 4.2 21 12.8 ESE 11 17 6 9 1012.9 1010.6 0.0
28/10:00pm 28.9 25.6 4.4 21 12.8 SE 11 15 6 8 1013.0 1010.7 0.0
28/09:30pm 29.1 26.2 4.6 21 12.9 ESE 9 13 5 7 1013.1 1010.8 0.0
28/09:00pm 29.4 26.5 4.8 21 13.0 SE 9 13 5 7 1013.2 1010.9 0.0
28/08:30pm 29.7 26.4 4.4 20 13.3 ESE 11 17 6 9 1013.0 1010.7 0.0
28/08:00pm 29.8 26.5 4.4 20 13.4 ESE 11 15 6 8 1013.0 1010.7 0.0
28/07:30pm 29.9 27.0 4.5 20 13.4 ESE 9 13 5 7 1012.8 1010.5 0.0
28/07:00pm 30.5 27.5 4.3 19 13.8 ESE 9 13 5 7 1012.8 1010.5 0.0
28/06:30pm 31.0 28.0 3.9 18 14.2 SE 9 11 5 6 1012.8 1010.5 0.0
28/06:00pm 32.0 28.8 3.1 16 15.1 ESE 9 13 5 7 1012.7 1010.4 0.0

Other Formats:

Comma delimited format used in spreadsheet applications
http://www.bom.gov.au/fwo/IDW60801/IDW60801.95448.axf

JavaScript Object Notation format (JSON) in row-major order
http://www.bom.gov.au/fwo/IDW60801/IDW60801.95448.json